Time;durP1;ratioP1;P1;durP2;ratioP2;P2;SDS_P1;SDS_P2;PMS_P1;PMS_P2;Temp;Humidity;BMP_temperature;BMP_pressure;BME280_temperature;BME280_humidity;BME280_pressure;Samples;Min_cycle;Max_cycle;Signal;HPM_P1;HPM_P2
2021/11/20 00:01:07;;;;;;;10.67;9.60;;;17.10;99.90;;;17.37;52.09;102508.41;4905789;28;98568;-43
2021/11/20 00:03:34;;;;;;;6.53;5.93;;;17.10;99.90;;;17.39;52.28;102501.22;4902359;28;99501;-47
2021/11/20 00:06:02;;;;;;;7.30;6.60;;;17.20;99.90;;;17.38;52.37;102502.13;4920678;28;99747;-47
2021/11/20 00:08:28;;;;;;;7.93;7.13;;;17.10;99.90;;;17.36;52.04;102492.41;4909946;28;100312;-43
2021/11/20 00:11:00;;;;;;;19.53;17.43;;;17.10;99.90;;;17.30;52.04;102493.50;4910388;28;98486;-46
2021/11/20 00:13:26;;;;;;;19.47;14.33;;;17.00;99.90;;;17.28;52.23;102495.38;4906458;28;101189;-45
2021/11/20 00:15:56;;;;;;;9.77;8.60;;;16.90;99.90;;;17.24;52.65;102485.75;4904389;28;99781;-44
2021/11/20 00:18:23;;;;;;;16.20;14.43;;;16.90;99.90;;;17.26;52.69;102491.88;4918337;28;98524;-48
2021/11/20 00:20:56;;;;;;;22.33;18.67;;;16.90;99.90;;;17.28;52.59;102490.03;4902162;28;98186;-45
2021/11/20 00:23:33;;;;;;;19.40;17.33;;;17.00;99.90;;;17.33;52.32;102495.19;4918246;28;98854;-49
2021/11/20 00:26:01;;;;;;;21.67;19.13;;;17.10;99.90;;;17.33;52.43;102488.06;4906388;28;98903;-44
2021/11/20 00:31:26;;;;;;;19.30;13.57;;;17.10;99.90;;;17.31;52.17;102487.25;4900498;28;97371;-49
2021/11/20 00:33:52;;;;;;;18.23;15.07;;;17.00;99.90;;;17.31;52.19;102487.25;4913698;28;97579;-50
2021/11/20 00:36:20;;;;;;;11.90;10.70;;;17.00;99.90;;;17.31;52.13;102484.59;4915832;28;100317;-51
2021/11/20 00:38:47;;;;;;;25.57;21.97;;;17.10;99.90;;;17.33;52.19;102492.53;4905551;28;100045;-50
2021/11/20 00:41:18;;;;;;;11.10;10.03;;;17.10;99.90;;;17.36;52.37;102487.97;4903907;28;99003;-46
2021/11/20 00:43:46;;;;;;;25.23;21.03;;;17.10;99.90;;;17.37;52.20;102480.84;4903851;28;99286;-48
2021/11/20 00:46:15;;;;;;;8.93;8.03;;;17.20;99.90;;;17.40;52.23;102486.06;4906866;28;97393;-48
2021/11/20 00:48:45;;;;;;;6.97;6.37;;;17.20;99.90;;;17.40;52.27;102483.41;4900273;28;101966;-43
2021/11/20 00:51:12;;;;;;;6.10;5.50;;;17.20;99.90;;;17.41;52.11;102491.34;4909834;28;98500;-48
2021/11/20 00:53:39;;;;;;;5.27;4.77;;;17.10;99.90;;;17.40;52.15;102489.59;4902096;28;98653;-45
2021/11/20 00:56:07;;;;;;;5.83;5.23;;;17.10;99.90;;;17.42;52.30;102487.75;4903604;28;97577;-49
2021/11/20 00:58:34;;;;;;;16.17;13.67;;;17.20;99.90;;;17.37;52.18;102480.84;4900993;28;99146;-49
2021/11/20 01:01:04;;;;;;;13.63;11.97;;;17.10;99.90;;;17.31;52.37;102476.59;4906318;28;99305;-48
2021/11/20 01:03:30;;;;;;;10.20;8.87;;;17.00;99.90;;;17.28;52.54;102476.69;4908181;28;99338;-45
2021/11/20 01:05:57;;;;;;;8.13;6.77;;;16.90;99.90;;;17.27;52.38;102482.97;4906951;28;107193;-44
2021/11/20 01:08:29;;;;;;;8.53;7.60;;;16.90;99.90;;;17.26;52.53;102481.22;4907166;28;98537;-47
2021/11/20 01:11:01;;;;;;;5.43;4.93;;;16.90;99.90;;;17.25;52.69;102475.00;4905179;28;97227;-46
2021/11/20 01:13:28;;;;;;;7.13;6.43;;;16.90;99.90;;;17.24;52.73;102478.59;4901178;28;97720;-47
2021/11/20 01:16:00;;;;;;;7.30;6.60;;;16.90;99.90;;;17.25;52.53;102475.00;4920177;28;99275;-47
2021/11/20 01:18:28;;;;;;;7.80;7.00;;;16.90;99.90;;;17.22;52.50;102482.25;4889994;28;99410;-49
2021/11/20 01:20:54;;;;;;;6.63;5.93;;;16.90;99.90;;;17.22;52.81;102476.94;4921185;28;98720;-42
2021/11/20 01:23:25;;;;;;;13.23;11.70;;;16.90;99.90;;;17.18;52.83;102473.47;4916170;28;99121;-43
2021/11/20 01:25:52;;;;;;;7.13;6.43;;;16.80;99.90;;;17.14;52.85;102466.50;4904593;28;99065;-46
2021/11/20 01:28:20;;;;;;;28.43;21.73;;;16.80;99.90;;;17.13;52.74;102463.91;4897970;28;100135;-43
2021/11/20 01:30:47;;;;;;;8.43;7.57;;;16.70;99.90;;;17.13;52.83;102463.91;4891358;28;100112;-43
2021/11/20 01:33:13;;;;;;;22.27;18.80;;;16.80;99.90;;;17.11;53.11;102457.75;4905944;28;97534;-50
2021/11/20 01:35:39;;;;;;;8.10;7.23;;;16.70;99.90;;;17.14;52.76;102462.97;4885409;28;104748;-48
2021/11/20 01:38:06;;;;;;;31.07;23.27;;;16.80;99.90;;;17.12;52.86;102464.81;4905296;28;100461;-44
2021/11/20 01:40:37;;;;;;;10.63;9.53;;;16.80;99.90;;;17.10;53.07;102458.69;4919137;28;97575;-48
2021/11/20 01:43:07;;;;;;;18.10;15.03;;;16.70;99.90;;;17.10;52.84;102453.34;4921628;28;98273;-44
2021/11/20 01:45:49;;;;;;;31.07;26.53;;;16.80;99.90;;;17.08;53.23;102444.53;4905623;28;98119;-47
2021/11/20 01:48:55;;;;;;;33.00;26.90;;;16.70;99.90;;;17.08;53.13;102449.88;4906078;28;98282;-48
2021/11/20 01:51:35;;;;;;;17.90;14.97;;;16.70;99.90;;;17.06;53.19;102435.69;4904206;28;97840;-49
2021/11/20 01:54:27;;;;;;;25.50;20.70;;;16.70;99.90;;;17.01;53.35;102435.00;4906675;28;97956;-49
2021/11/20 01:57:21;;;;;;;10.27;8.57;;;16.60;99.90;;;16.98;53.27;102435.97;4909468;28;103368;-48
2021/11/20 02:00:10;;;;;;;11.10;9.77;;;16.60;99.90;;;16.93;53.25;102430.81;4908001;28;102606;-47
2021/11/20 02:03:04;;;;;;;26.00;21.80;;;16.50;99.90;;;16.90;53.38;102430.88;4902316;28;98806;-47
2021/11/20 02:05:56;;;;;;;33.13;27.43;;;16.50;99.90;;;16.92;53.38;102429.06;4902867;28;99666;-43
2021/11/20 02:09:09;;;;;;;33.13;26.43;;;16.50;99.90;;;16.97;53.41;102428.03;4903253;28;98515;-46
2021/11/20 02:11:48;;;;;;;36.23;27.73;;;16.60;99.90;;;16.98;53.49;102421.78;4903221;28;99163;-42
2021/11/20 02:14:17;;;;;;;29.53;24.87;;;16.70;99.90;;;17.03;53.01;102417.13;4905531;28;97886;-49
2021/11/20 02:17:01;;;;;;;35.13;29.13;;;16.80;99.90;;;17.05;53.27;102417.94;4905409;28;97872;-44
2021/11/20 02:19:34;;;;;;;21.07;18.47;;;16.70;99.90;;;17.02;53.11;102413.59;4907624;28;98019;-49
2021/11/20 02:22:33;;;;;;;33.73;28.50;;;16.70;99.90;;;17.08;53.14;102412.53;4922722;28;99369;-47
2021/11/20 02:24:59;;;;;;;25.47;21.53;;;16.70;99.90;;;17.11;53.20;102412.44;4917983;28;101209;-46
2021/11/20 02:27:25;;;;;;;20.53;18.30;;;16.80;99.90;;;17.09;53.01;102406.28;4900695;28;98835;-44
2021/11/20 02:30:24;;;;;;;27.87;23.63;;;16.80;99.90;;;17.20;52.99;102409.41;4905222;28;101257;-43
2021/11/20 02:33:20;;;;;;;37.80;29.40;;;16.90;99.90;;;17.20;52.81;102406.75;4903592;28;103036;-46
2021/11/20 02:35:52;;;;;;;16.73;12.13;;;16.90;99.90;;;17.22;52.95;102399.59;4899794;28;101221;-47
2021/11/20 02:38:32;;;;;;;32.37;27.63;;;17.00;99.90;;;17.25;52.95;102399.47;4902212;28;100074;-45
2021/11/20 02:41:00;;;;;;;31.93;26.67;;;17.00;99.90;;;17.27;52.54;102402.94;4895819;28;105693;-48
2021/11/20 02:43:28;;;;;;;34.17;28.33;;;17.00;99.90;;;17.31;52.65;102398.38;4904919;28;98957;-45
2021/11/20 02:45:57;;;;;;;19.87;17.77;;;17.10;99.90;;;17.35;52.64;102410.66;4908318;28;97431;-48
2021/11/20 02:48:25;;;;;;;20.93;15.80;;;17.10;99.90;;;17.38;52.18;102400.78;4902536;28;98060;-42
2021/11/20 02:51:07;;;;;;;34.07;29.13;;;17.20;99.90;;;17.39;52.21;102391.84;4910007;28;98148;-43
2021/11/20 02:53:35;;;;;;;20.07;16.20;;;17.20;99.90;;;17.38;52.21;102395.44;4905071;28;99250;-45
2021/11/20 02:56:04;;;;;;;27.00;21.77;;;17.10;99.90;;;17.36;52.29;102393.72;4914728;28;97736;-44
2021/11/20 02:58:30;;;;;;;19.07;15.17;;;17.10;99.90;;;17.29;52.35;102393.09;4921135;28;103944;-50
2021/11/20 03:01:16;;;;;;;32.83;28.63;;;17.00;99.90;;;17.25;52.62;102383.47;4911925;28;98978;-43
2021/11/20 03:03:42;;;;;;;26.13;21.10;;;16.90;99.90;;;17.17;52.93;102393.53;4921939;28;101071;-45
2021/11/20 03:06:08;;;;;;;29.07;24.97;;;16.80;99.90;;;17.16;53.13;102384.66;4909437;28;100810;-48
2021/11/20 03:08:34;;;;;;;28.30;24.27;;;16.80;99.90;;;17.19;52.90;102389.00;4921288;28;98327;-47
2021/11/20 03:11:01;;;;;;;33.83;28.23;;;16.80;99.90;;;17.16;52.71;102383.78;4909294;28;98826;-47
2021/11/20 03:13:27;;;;;;;23.20;19.70;;;16.80;99.90;;;17.12;53.16;102375.03;4921266;28;99621;-49
2021/11/20 03:15:53;;;;;;;28.83;24.13;;;16.80;99.90;;;17.14;52.88;102377.66;4906933;28;98531;-46
2021/11/20 03:18:19;;;;;;;36.13;26.40;;;16.80;99.90;;;17.15;52.78;102371.38;4906548;28;99764;-47
2021/11/20 03:20:46;;;;;;;26.80;22.93;;;16.80;99.90;;;17.16;52.52;102376.66;4913746;28;98241;-48
2021/11/20 03:23:25;;;;;;;15.73;14.07;;;16.90;99.90;;;17.17;52.91;102380.19;4912440;28;100279;-46
2021/11/20 03:25:51;;;;;;;10.77;9.67;;;16.90;99.90;;;17.17;52.63;102375.72;4920242;28;98469;-48
2021/11/20 03:28:18;;;;;;;30.27;24.80;;;16.90;99.90;;;17.16;52.65;102373.13;4910145;28;99040;-45
2021/11/20 03:30:44;;;;;;;35.73;29.13;;;16.90;99.90;;;17.07;52.67;102368.09;4913532;28;101036;-46
2021/11/20 03:33:10;;;;;;;12.67;9.70;;;16.70;99.90;;;17.13;52.92;102378.56;4899280;28;97804;-48
2021/11/20 03:35:37;;;;;;;20.63;17.10;;;16.80;99.90;;;17.14;52.79;102374.97;4919102;28;98232;-49
2021/11/20 03:38:03;;;;;;;13.20;11.70;;;16.80;99.90;;;17.12;52.85;102366.16;4907134;28;97370;-46
2021/11/20 03:40:30;;;;;;;35.33;27.10;;;16.80;99.90;;;17.11;53.06;102370.63;4895381;28;98779;-43
2021/11/20 03:42:56;;;;;;;15.70;12.47;;;16.80;99.90;;;17.14;52.75;102370.50;4943896;28;97148;-44
2021/11/20 03:45:28;;;;;;;18.30;15.03;;;16.80;99.90;;;17.12;52.77;102360.84;4919140;28;97605;-43
2021/11/20 03:47:55;;;;;;;16.20;13.47;;;16.80;99.90;;;17.08;52.83;102364.53;4953763;28;102541;-42
2021/11/20 03:50:21;;;;;;;30.43;23.93;;;16.70;99.90;;;17.06;52.79;102355.69;4933022;28;97892;-42
2021/11/20 03:52:47;;;;;;;22.03;17.67;;;16.70;99.90;;;17.04;52.85;102354.91;4934388;28;97597;-45
2021/11/20 03:55:23;;;;;;;15.27;13.50;;;16.70;99.90;;;17.07;53.13;102346.78;4938602;28;97179;-49
2021/11/20 03:57:49;;;;;;;36.30;26.10;;;16.70;99.90;;;17.14;52.73;102342.97;4948659;28;97516;-44
2021/11/20 04:00:18;;;;;;;24.50;20.03;;;16.80;99.90;;;17.13;52.50;102341.25;4934119;28;99543;-50
2021/11/20 04:02:47;;;;;;;18.90;15.77;;;16.90;99.90;;;17.09;52.73;102337.81;4944154;28;102645;-43
2021/11/20 04:05:14;;;;;;;28.27;21.63;;;16.80;99.90;;;17.06;52.85;102345.03;4940232;28;97044;-43
2021/11/20 04:07:40;;;;;;;34.60;25.90;;;16.70;99.90;;;17.02;53.22;102344.28;4931605;28;98764;-49
2021/11/20 04:10:10;;;;;;;30.50;24.87;;;16.60;99.90;;;17.05;53.33;102343.31;4941053;28;97219;-46
2021/11/20 04:12:37;;;;;;;22.87;17.17;;;16.70;99.90;;;17.06;53.16;102350.38;4940382;28;97558;-45
2021/11/20 04:15:07;;;;;;;23.20;18.07;;;16.70;99.90;;;17.09;53.10;102351.16;4935599;28;96798;-47
2021/11/20 04:17:33;;;;;;;22.17;17.83;;;16.80;99.90;;;17.12;53.10;102350.16;4925268;28;97240;-46
2021/11/20 04:19:59;;;;;;;14.23;11.73;;;16.80;99.90;;;17.12;52.96;102350.16;4933651;28;99271;-46
2021/11/20 04:22:24;;;;;;;26.00;20.13;;;16.80;99.90;;;17.09;53.18;102339.63;4930636;28;99555;-47
2021/11/20 04:24:50;;;;;;;19.23;15.50;;;16.70;99.90;;;17.08;53.18;102348.56;4937690;28;97014;-46
2021/11/20 04:27:16;;;;;;;26.50;21.23;;;16.70;99.90;;;17.03;52.92;102343.34;4932036;28;97474;-45
2021/11/20 04:29:42;;;;;;;32.17;24.00;;;16.60;99.90;;;17.02;53.32;102340.75;4934310;28;100555;-44
2021/11/20 04:32:09;;;;;;;24.57;18.40;;;16.60;99.90;;;17.01;52.96;102347.88;4933496;28;99510;-43
2021/11/20 04:34:36;;;;;;;23.67;19.10;;;16.60;99.90;;;16.98;53.42;102347.13;4922662;28;96684;-44
2021/11/20 04:37:02;;;;;;;30.03;24.07;;;16.60;99.90;;;16.97;53.21;102340.06;4903746;28;98000;-42
2021/11/20 04:39:28;;;;;;;38.10;28.37;;;16.50;99.90;;;16.94;53.35;102335.72;4934296;28;96823;-45
2021/11/20 04:41:54;;;;;;;10.73;9.07;;;16.50;99.90;;;16.89;53.33;102335.84;4933859;28;99525;-45
2021/11/20 04:44:20;;;;;;;17.30;13.80;;;16.40;99.90;;;16.87;53.71;102337.72;4933361;28;96981;-43
2021/11/20 04:46:46;;;;;;;14.23;12.30;;;16.40;99.90;;;16.84;53.70;102340.50;4935895;28;97166;-44
2021/11/20 04:49:12;;;;;;;37.27;26.60;;;16.40;99.90;;;16.80;53.52;102332.66;4929107;28;99638;-42
2021/11/20 04:51:38;;;;;;;36.97;27.07;;;16.30;99.90;;;16.79;53.63;102333.59;4921016;28;98861;-46
2021/11/20 04:54:05;;;;;;;32.23;24.47;;;16.30;99.90;;;16.75;54.21;102335.47;4941955;28;96730;-43
2021/11/20 04:56:31;;;;;;;33.47;25.50;;;16.30;99.90;;;16.74;53.91;102333.72;4927150;28;97264;-46
2021/11/20 04:58:57;;;;;;;28.70;23.53;;;16.20;99.90;;;16.72;54.19;102332.91;4928363;28;97241;-42
2021/11/20 05:01:24;;;;;;;33.37;24.20;;;16.20;99.90;;;16.70;54.10;102332.09;4924869;28;97383;-43
2021/11/20 05:03:53;;;;;;;30.03;24.03;;;16.20;99.90;;;16.71;54.06;102325.84;4939364;28;97028;-46
2021/11/20 05:06:22;;;;;;;24.80;19.77;;;16.20;99.90;;;16.71;54.16;102325.84;4928923;28;97728;-46
2021/11/20 05:08:48;;;;;;;34.97;27.20;;;16.20;99.90;;;16.69;54.05;102325.03;4933024;28;97416;-47
2021/11/20 05:11:15;;;;;;;26.00;20.03;;;16.20;99.90;;;16.66;54.32;102326.00;4940114;28;96912;-47
2021/11/20 05:13:42;;;;;;;26.17;20.07;;;16.20;99.90;;;16.66;53.96;102325.13;4947518;28;97607;-44
2021/11/20 05:16:10;;;;;;;15.87;13.30;;;16.20;99.90;;;16.65;54.27;102324.25;4935682;28;96948;-42
2021/11/20 05:18:37;;;;;;;27.27;20.00;;;16.20;99.90;;;16.68;54.33;102323.31;4933312;28;97821;-45
2021/11/20 05:21:03;;;;;;;17.17;12.80;;;16.30;99.90;;;16.73;54.13;102332.00;4933790;28;98918;-45
2021/11/20 05:23:32;;;;;;;31.63;23.27;;;16.30;99.90;;;16.77;53.56;102322.97;4932408;28;101683;-42
2021/11/20 05:25:59;;;;;;;14.77;12.43;;;16.40;99.90;;;16.80;53.76;102327.34;4923929;28;97200;-43
2021/11/20 05:28:25;;;;;;;32.27;24.57;;;16.40;99.90;;;16.80;53.42;102317.53;4930061;28;97219;-42
2021/11/20 05:30:52;;;;;;;25.87;19.83;;;16.40;99.90;;;16.78;53.59;102319.41;4932452;28;97290;-42
2021/11/20 05:33:25;;;;;;;35.20;25.90;;;16.40;99.90;;;16.80;53.94;102317.53;4921259;28;96908;-46
2021/11/20 05:35:52;;;;;;;19.37;14.60;;;16.40;99.90;;;16.78;53.89;102316.72;4942029;28;97264;-45
2021/11/20 05:38:19;;;;;;;28.50;22.03;;;16.30;99.90;;;16.79;53.76;102310.47;4927551;28;98760;-43
2021/11/20 05:40:45;;;;;;;29.43;24.70;;;16.30;99.90;;;16.79;53.84;102318.47;4929404;28;102518;-43
2021/11/20 05:43:17;;;;;;;15.17;11.07;;;16.40;99.90;;;16.83;53.71;102305.91;4946232;28;97040;-43
2021/11/20 05:45:52;;;;;;;24.03;19.80;;;16.40;99.90;;;16.81;53.90;102303.28;4949629;28;97007;-44
2021/11/20 05:48:19;;;;;;;31.63;23.50;;;16.40;99.90;;;16.82;53.63;102305.03;4928144;28;101532;-43
2021/11/20 05:50:46;;;;;;;25.43;19.80;;;16.40;99.90;;;16.81;54.02;102300.63;4941926;28;100150;-44
2021/11/20 05:53:17;;;;;;;24.80;18.53;;;16.40;99.90;;;16.85;53.65;102304.91;4931948;28;97018;-44
2021/11/20 05:55:44;;;;;;;19.07;13.70;;;16.40;99.90;;;16.88;53.88;102304.81;4913602;28;98584;-43
2021/11/20 05:58:11;;;;;;;15.77;13.40;;;16.50;99.90;;;16.91;53.71;102299.34;4933562;28;99478;-44
2021/11/20 06:00:42;;;;;;;19.33;15.77;;;16.50;99.90;;;16.97;53.28;102289.41;4914876;28;97627;-45
2021/11/20 06:03:09;;;;;;;18.27;14.23;;;16.60;99.90;;;17.01;53.45;102293.69;4922174;28;98961;-43
2021/11/20 06:05:36;;;;;;;11.07;9.53;;;16.70;99.90;;;17.03;53.37;102287.38;4931451;28;103163;-42
2021/11/20 06:08:03;;;;;;;10.23;8.53;;;16.70;99.90;;;17.06;53.05;102286.38;4933205;28;97995;-43
2021/11/20 06:10:30;;;;;;;19.50;15.43;;;16.70;99.90;;;17.07;53.23;102289.03;4944545;28;98617;-44
2021/11/20 06:12:56;;;;;;;11.97;10.63;;;16.70;99.90;;;17.02;53.31;102285.63;4936448;28;97062;-43
2021/11/20 06:15:23;;;;;;;14.00;11.93;;;16.60;99.90;;;17.02;53.42;102282.97;4934541;28;97532;-46
2021/11/20 06:17:49;;;;;;;26.77;21.13;;;16.60;99.90;;;17.00;53.51;102282.16;4933155;28;96826;-48
2021/11/20 06:20:15;;;;;;;15.50;13.13;;;16.50;99.90;;;16.99;53.37;102284.88;4935190;28;99119;-49
2021/11/20 06:22:42;;;;;;;23.93;18.83;;;16.50;99.90;;;16.94;53.31;102277.94;4937478;28;97601;-46
2021/11/20 06:25:10;;;;;;;17.90;15.40;;;16.40;99.90;;;16.92;53.66;102273.56;4935353;28;97499;-43
2021/11/20 06:27:36;;;;;;;14.90;12.93;;;16.40;99.90;;;16.89;53.51;102282.53;4930259;28;100331;-43
2021/11/20 06:30:04;;;;;;;20.57;16.27;;;16.40;99.90;;;16.87;53.78;102272.88;4932933;28;97203;-43
2021/11/20 06:32:30;;;;;;;24.83;20.17;;;16.40;99.90;;;16.84;53.86;102275.66;4923551;28;96677;-47
2021/11/20 06:34:56;;;;;;;14.33;12.33;;;16.30;99.90;;;16.82;53.79;102267.72;4933315;28;97387;-45
2021/11/20 06:37:22;;;;;;;24.33;18.80;;;16.30;99.90;;;16.79;53.92;102277.63;4929137;28;98022;-42
2021/11/20 06:39:48;;;;;;;8.70;7.80;;;16.30;99.90;;;16.75;53.81;102271.50;4946553;28;97439;-44
2021/11/20 06:42:14;;;;;;;15.77;12.70;;;16.20;99.90;;;16.73;54.14;102278.69;4940009;28;96913;-48
2021/11/20 06:44:40;;;;;;;23.53;18.60;;;16.20;99.90;;;16.72;54.08;102284.09;4925058;28;97729;-46
2021/11/20 06:47:07;;;;;;;9.53;8.43;;;16.20;99.90;;;16.71;53.92;102280.56;4935853;28;98570;-47
2021/11/20 06:49:33;;;;;;;13.53;11.57;;;16.20;99.90;;;16.73;54.20;102288.50;4930373;28;98223;-45
2021/11/20 06:51:59;;;;;;;18.17;15.20;;;16.20;99.90;;;16.73;53.86;102278.69;4934776;28;97049;-44
2021/11/20 06:54:25;;;;;;;8.47;7.63;;;16.20;99.90;;;16.74;54.07;102280.44;4928232;28;97520;-45
2021/11/20 06:57:04;;;;;;;17.60;14.10;;;16.30;99.90;;;16.74;54.06;102275.09;4940109;28;97820;-48
2021/11/20 07:02:26;;;;;;;18.40;14.00;;;16.30;99.90;;;16.74;53.82;102280.44;4936349;28;97047;-44
2021/11/20 07:04:53;;;;;;;16.57;14.07;;;16.20;99.90;;;16.73;53.70;102278.69;4924814;28;96805;-42
2021/11/20 07:07:19;;;;;;;8.30;7.53;;;16.30;99.90;;;16.73;53.75;102273.38;4933479;28;98622;-43
2021/11/20 07:09:47;;;;;;;17.40;14.77;;;16.30;99.90;;;16.73;54.00;102278.69;4931966;28;98018;-47
2021/11/20 07:12:12;;;;;;;16.87;13.43;;;16.30;99.90;;;16.74;53.96;102283.09;4946312;28;97050;-43
2021/11/20 07:14:38;;;;;;;24.63;19.63;;;16.30;99.90;;;16.74;53.57;102284.91;4926987;28;97441;-42
2021/11/20 07:17:04;;;;;;;16.53;13.37;;;16.30;99.90;;;16.76;53.71;102278.59;4937520;28;99317;-43
2021/11/20 07:19:30;;;;;;;13.03;11.00;;;16.30;99.90;;;16.78;53.80;102279.44;4924164;28;97781;-43
2021/11/20 07:21:56;;;;;;;9.00;8.10;;;16.40;99.90;;;16.79;53.77;102289.16;4940853;28;97437;-45
2021/11/20 07:24:22;;;;;;;26.03;20.70;;;16.40;99.90;;;16.74;53.24;102280.44;4934550;28;97247;-46
2021/11/20 07:26:50;;;;;;;24.20;19.37;;;16.30;99.90;;;16.77;53.38;102288.31;4941534;28;98296;-43
2021/11/20 07:29:16;;;;;;;25.97;20.83;;;16.30;99.90;;;16.70;52.25;102294.81;4937273;28;97692;-46
2021/11/20 07:31:43;;;;;;;7.57;6.83;;;16.20;99.90;;;16.68;54.06;102288.66;4930939;28;97065;-42
2021/11/20 07:34:09;;;;;;;12.53;10.77;;;16.20;99.90;;;16.65;53.89;102291.41;4943704;28;97018;-43
2021/11/20 07:36:36;;;;;;;25.37;21.27;;;16.10;99.90;;;16.65;52.04;102286.09;4926583;28;97637;-43
2021/11/20 07:39:13;;;;;;;15.87;13.40;;;16.20;99.90;;;16.68;54.23;102274.47;4942005;28;98421;-43
2021/11/20 07:41:39;;;;;;;13.27;10.80;;;16.20;99.90;;;16.65;54.24;102278.09;4936943;28;97860;-43
2021/11/20 07:44:06;;;;;;;18.30;16.03;;;16.20;99.90;;;16.67;53.69;102278.94;4934738;28;97048;-43
2021/11/20 07:46:34;;;;;;;17.33;14.90;;;16.20;99.90;;;16.66;53.86;102277.16;4932115;28;100083;-44
2021/11/20 07:49:00;;;;;;;26.07;21.70;;;16.20;99.90;;;16.63;53.21;102274.56;4933758;28;99077;-45
2021/11/20 07:51:27;;;;;;;25.77;21.07;;;16.10;99.90;;;16.64;53.30;102279.00;4937128;28;97333;-43
2021/11/20 07:53:54;;;;;;;15.67;12.60;;;16.10;99.90;;;16.59;53.99;102270.28;4936120;28;97378;-42
2021/11/20 07:56:20;;;;;;;28.63;21.03;;;16.10;99.90;;;16.55;52.63;102272.19;4931583;28;98757;-44
2021/11/20 07:58:47;;;;;;;26.53;21.13;;;16.10;99.90;;;16.51;52.63;102272.38;4928562;28;97125;-43
2021/11/20 08:01:14;;;;;;;18.47;14.63;;;16.00;99.90;;;16.52;54.30;102268.78;4927766;28;97224;-42
2021/11/20 08:03:40;;;;;;;14.80;11.57;;;16.00;99.90;;;16.51;54.35;102261.72;4937142;28;97656;-42
2021/11/20 08:06:07;;;;;;;27.90;20.63;;;16.00;99.90;;;16.50;53.29;102259.97;4933397;28;96993;-43
2021/11/20 08:08:33;;;;;;;24.83;18.30;;;16.10;99.90;;;16.53;54.23;102260.72;4916062;28;99348;-46
2021/11/20 08:10:59;;;;;;;18.23;15.70;;;16.10;99.90;;;16.53;54.05;102258.06;4928983;28;98821;-44
2021/11/20 08:13:25;;;;;;;23.80;18.13;;;16.10;99.90;;;16.53;54.04;102254.53;4932516;28;97324;-44
2021/11/20 08:15:50;;;;;;;21.80;18.50;;;16.10;99.90;;;16.54;53.92;102256.28;4931278;28;99997;-43
2021/11/20 08:18:16;;;;;;;14.70;12.10;;;16.10;99.90;;;16.55;53.96;102258.88;4930562;28;97097;-48
2021/11/20 08:20:46;;;;;;;17.10;15.03;;;16.10;99.90;;;16.58;53.88;102252.56;4935378;28;96881;-44
2021/11/20 08:23:13;;;;;;;12.27;9.47;;;16.10;99.90;;;16.62;54.10;102248.88;4935210;28;96969;-45
2021/11/20 08:25:43;;;;;;;13.67;12.03;;;16.20;99.90;;;16.66;53.94;102239.84;4926937;28;102611;-47
2021/11/20 08:28:14;;;;;;;27.57;22.77;;;16.20;99.90;;;16.58;51.10;102245.44;4940101;28;97413;-47
2021/11/20 08:30:41;;;;;;;13.13;10.27;;;16.20;99.90;;;16.61;54.05;102241.78;4912715;28;98066;-46
2021/11/20 08:33:07;;;;;;;11.00;9.73;;;16.10;99.90;;;16.63;53.88;102239.94;4947834;28;96799;-46
2021/11/20 08:35:34;;;;;;;24.80;19.80;;;16.20;99.90;;;16.59;53.65;102225.00;4929792;28;98107;-43
2021/11/20 08:38:00;;;;;;;13.73;11.77;;;16.20;99.90;;;16.59;54.04;102228.53;4932805;28;98497;-45
2021/11/20 08:40:31;;;;;;;10.67;9.10;;;16.10;99.90;;;16.59;53.75;102228.53;4925720;28;98077;-54
2021/11/20 08:42:59;;;;;;;28.60;23.00;;;16.10;99.90;;;16.53;51.98;102223.44;4929570;28;97678;-45
2021/11/20 08:45:29;;;;;;;28.23;23.10;;;16.10;99.90;;;16.45;53.68;102229.94;4931088;28;99554;-44
2021/11/20 08:47:56;;;;;;;28.07;23.30;;;16.00;99.90;;;16.49;53.22;102223.59;4956395;28;99611;-46
2021/11/20 08:50:36;;;;;;;15.50;13.60;;;16.00;99.90;;;16.48;52.90;102213.84;4932769;28;96852;-44
2021/11/20 08:53:03;;;;;;;12.47;10.60;;;16.00;99.90;;;16.44;54.17;102221.09;4953607;28;96899;-45
2021/11/20 08:55:30;;;;;;;14.27;11.67;;;16.00;99.90;;;16.48;54.25;102220.06;4930269;28;96825;-43
2021/11/20 08:57:56;;;;;;;12.97;10.70;;;16.00;99.90;;;16.46;54.12;102227.22;4934662;28;98281;-44
2021/11/20 09:00:57;;;;;;;27.27;20.53;;;16.00;99.90;;;16.51;54.17;102219.09;4927597;28;100428;-43
2021/11/20 09:03:37;;;;;;;24.97;18.70;;;16.00;99.90;;;16.54;53.41;102213.66;4953006;28;98586;-44
2021/11/20 09:06:12;;;;;;;27.10;20.90;;;16.10;99.90;;;16.44;51.94;102222.88;4927801;28;98772;-50
2021/11/20 09:08:58;;;;;;;27.83;21.73;;;16.00;99.90;;;16.41;52.65;102223.00;4938620;28;97939;-43
2021/11/20 09:11:50;;;;;;;28.83;21.70;;;15.90;99.90;;;16.35;54.21;102216.97;4912039;28;96818;-45
2021/11/20 09:14:36;;;;;;;27.03;21.77;;;15.90;99.90;;;16.25;53.65;102217.34;4898517;28;97531;-43
2021/11/20 09:17:03;;;;;;;28.73;21.93;;;15.80;99.90;;;16.14;54.65;102215.03;4929162;28;104362;-45
2021/11/20 09:19:32;;;;;;;25.90;20.73;;;15.70;99.90;;;16.03;53.68;102211.88;4939464;28;98375;-44
2021/11/20 09:22:00;;;;;;;29.30;22.23;;;15.60;99.90;;;15.99;53.67;102215.56;4932060;28;97578;-46
2021/11/20 09:24:30;;;;;;;28.60;21.77;;;15.50;99.90;;;16.01;54.45;102213.72;4930709;28;98166;-46
2021/11/20 09:26:57;;;;;;;27.67;21.57;;;15.50;99.90;;;15.95;53.88;102213.94;4931961;28;96891;-43
2021/11/20 09:29:27;;;;;;;22.37;18.30;;;15.50;99.90;;;15.95;55.11;102205.94;4926418;28;99520;-43
2021/11/20 09:31:54;;;;;;;26.27;20.53;;;15.50;99.90;;;15.93;55.02;102210.47;4934342;28;97549;-47
2021/11/20 09:34:22;;;;;;;27.13;20.50;;;15.50;99.90;;;15.89;54.78;102200.81;4926861;28;97025;-42
2021/11/20 09:36:55;;;;;;;27.17;20.23;;;15.40;99.90;;;15.87;55.41;102205.31;4929939;28;97346;-45
2021/11/20 09:39:25;;;;;;;18.60;15.00;;;15.40;99.90;;;15.85;55.43;102193.88;4935842;28;96875;-43
2021/11/20 09:42:26;;;;;;;24.70;20.43;;;15.40;99.90;;;15.81;54.61;102195.75;4936157;28;97327;-42
2021/11/20 09:44:58;;;;;;;28.47;19.33;;;15.30;99.90;;;15.77;54.07;102194.13;4931023;28;97325;-47
2021/11/20 09:47:54;;;;;;;25.10;20.23;;;15.30;99.90;;;15.80;54.78;102193.16;4929739;28;97530;-44
2021/11/20 09:50:19;;;;;;;25.33;19.47;;;15.40;99.90;;;15.72;54.53;102194.25;4950551;28;98580;-43
2021/11/20 09:52:48;;;;;;;19.77;16.20;;;15.30;99.90;;;15.71;55.57;102189.88;4932504;28;96777;-44
2021/11/20 09:55:22;;;;;;;23.10;18.90;;;15.30;99.90;;;15.71;55.02;102194.31;4959348;28;97687;-46
2021/11/20 09:58:01;;;;;;;19.20;15.13;;;15.30;99.90;;;15.66;54.06;102185.63;4925680;28;103036;-43
2021/11/20 10:01:10;;;;;;;22.50;17.73;;;15.30;99.90;;;15.73;54.71;102184.50;4932439;28;97277;-42
2021/11/20 10:04:05;;;;;;;22.80;17.80;;;15.30;99.90;;;15.64;55.25;102192.78;4926651;28;97006;-43
2021/11/20 10:06:37;;;;;;;13.87;11.37;;;15.20;99.90;;;15.62;54.99;102190.19;4919175;28;96594;-43
2021/11/20 10:09:30;;;;;;;26.60;18.70;;;15.20;99.90;;;15.69;56.22;102191.72;4930190;28;98377;-42
2021/11/20 10:12:19;;;;;;;23.10;17.67;;;15.30;99.90;;;15.70;54.36;102185.47;4925571;28;103383;-42
2021/11/20 10:15:05;;;;;;;20.63;16.23;;;15.30;99.90;;;15.69;54.10;102185.53;4933070;28;99600;-42
2021/11/20 10:17:42;;;;;;;25.53;16.33;;;15.30;99.90;;;15.65;54.70;102182.09;4926870;28;97268;-43
2021/11/20 10:20:19;;;;;;;18.10;15.10;;;15.30;99.90;;;15.68;55.54;102175.81;4947610;28;97659;-42